Sawyer, North Dakota
Current Conditions -  °F | °C
As of 1:54 AM on Thursday 29 Jan 2015 (Local Time) from KMOT Reporting Station
Overcast Overcast  
Wind Chill: 13°   Ceiling: 2200
Heat Index: 26°   Visibility: 10mi
Dew Point: 20°   Wind: 17mph
Humidity: 78%   Direction: 300°WNW
Pressure: 30.29"   Gusts: NA
Location:  48.09°N, 101.05°W
Report Text: KMOT 290754Z AUTO 30015KT 10SM OVC022 M03/M07 A3029 RMK AO2 PK WND 32026/0702 SLP283 T10331067
Loading
Personal Weather Stations






























Interactive Weather Map New forecast layout! Learn more

10-Day Weather Forecast

Advertisements
Track Severe Weather on mobile